»·PEaware :: N4868P KPSP-KSNA

N4868P :: KPSP-KSNA

FLIGHT INFORMATION

Flight Status: Arrived
Operator: Privately registered:
United States
More flights under this callsign
Pilot: Erik K. (18332)
Aircraft: BOMBARDIER BD-100 CHALLENGER 300
(CL30)
More flights by this aircraft type
Origin: KPSP Palm Springs Intl
United States
Destination: KSNA John Wayne-Orange Co
United States
More flights between these airports :: More routes between these airports
Route: +CATH1 PSP V388 DEWAY FRETS KAYOH7
File this flight plan on PilotEdge
Remarks:
Altitude:
(Current/Filed)
6,000ft
Speed:
(Current/Filed)
300kts
Departed: 30-Sep-18 12:13 PM
Arrived: 30-Sep-18 12:56 PM
Distance/Time
Traveled:
69nm/0:43
Distance/Time
To Go:
Arrived

Flight Plot

Page will automatically refresh every two minutes.

Flight plan parsing failed; only flown route is shown


Map Options




Map Legend


Flown Route
Filed Route
Departure Airport
Arrival Airport
Navaid (VOR, NDB)
Fix

Horizontal Profiles

Position Reports

Time Latitude Longitude Heading Altitude Ground
Speed
30-Sep-18 11:42 33.823342 -116.498402 55 484ft 0kts
30-Sep-18 11:43 33.823342 -116.498402 55 484ft 0kts
30-Sep-18 11:44 33.823342 -116.498402 55 484ft 0kts
30-Sep-18 11:45 33.823342 -116.498402 55 484ft 0kts
30-Sep-18 11:46 33.823342 -116.498402 55 484ft 0kts
30-Sep-18 11:47 33.823342 -116.498402 55 484ft 0kts
30-Sep-18 11:48 33.823342 -116.498402 55 484ft 0kts
30-Sep-18 11:49 33.823342 -116.498402 55 484ft 0kts
30-Sep-18 11:50 33.823342 -116.498402 55 484ft 0kts
30-Sep-18 11:51 33.823342 -116.498402 55 484ft 0kts
30-Sep-18 11:52 33.823342 -116.498402 55 484ft 0kts
30-Sep-18 11:53 33.823342 -116.498402 55 484ft 0kts
30-Sep-18 11:54 33.823342 -116.498402 55 484ft 0kts
30-Sep-18 11:55 33.823342 -116.498402 55 484ft 0kts
30-Sep-18 11:56 33.823342 -116.498402 55 484ft 0kts
30-Sep-18 11:57 33.823342 -116.498402 55 484ft 0kts
30-Sep-18 11:58 33.823342 -116.498402 55 484ft 0kts
30-Sep-18 11:59 33.823342 -116.498402 55 484ft 0kts
30-Sep-18 12:00 33.823342 -116.498402 55 484ft 0kts
30-Sep-18 12:01 33.823634 -116.498385 330 484ft 4kts
30-Sep-18 12:02 33.824693 -116.499341 272 484ft 5kts
30-Sep-18 12:03 33.825780 -116.502530 324 484ft 21kts
30-Sep-18 12:04 33.828382 -116.504859 322 484ft 17kts
30-Sep-18 12:05 33.831711 -116.507873 323 484ft 13kts
30-Sep-18 12:06 33.834775 -116.510565 323 484ft 14kts
30-Sep-18 12:07 33.838091 -116.513505 325 484ft 15kts
30-Sep-18 12:08 33.840657 -116.515840 277 484ft 0kts
30-Sep-18 12:09 33.840657 -116.515840 277 484ft 0kts
30-Sep-18 12:10 33.840657 -116.515840 277 484ft 0kts
30-Sep-18 12:11 33.840657 -116.515840 277 484ft 0kts
30-Sep-18 12:12 33.840657 -116.515840 277 484ft 0kts
30-Sep-18 12:13 33.840657 -116.515840 277 484ft 0kts
30-Sep-18 12:14 33.840399 -116.516444 217 484ft 16kts
30-Sep-18 12:15 33.834184 -116.511473 143 484ft 139kts
30-Sep-18 12:16 33.798934 -116.455251 104 3172ft 318kts
30-Sep-18 12:17 33.787730 -116.346098 85 6519ft 338kts
30-Sep-18 12:18 33.805273 -116.234208 90 7840ft 342kts
30-Sep-18 12:19 33.756314 -116.170238 195 10467ft 288kts
30-Sep-18 12:20 33.702686 -116.237231 260 11900ft 313kts
30-Sep-18 12:21 33.751129 -116.332394 303 11921ft 363kts
30-Sep-18 12:22 33.807598 -116.436228 297 11938ft 380kts
30-Sep-18 12:23 33.859714 -116.545379 295 11933ft 369kts
30-Sep-18 12:24 33.907013 -116.648352 295 11934ft 344kts
30-Sep-18 12:25 33.939078 -116.737988 261 11953ft 314kts
30-Sep-18 12:26 33.923602 -116.838499 253 11997ft 301kts
30-Sep-18 12:27 33.903973 -116.937167 252 11375ft 313kts
30-Sep-18 12:28 33.881809 -117.040473 252 10310ft 327kts
30-Sep-18 12:29 33.857981 -117.148439 252 8851ft 340kts
30-Sep-18 12:30 33.834275 -117.254732 252 7997ft 304kts
30-Sep-18 12:31 33.815329 -117.339352 251 7990ft 226kts
30-Sep-18 12:32 33.800855 -117.403760 250 7987ft 177kts
30-Sep-18 12:33 33.789600 -117.453876 247 8007ft 135kts
30-Sep-18 12:34 33.782184 -117.501180 263 8107ft 166kts
30-Sep-18 12:35 33.801542 -117.563809 291 7733ft 239kts
30-Sep-18 12:36 33.829251 -117.646677 292 6529ft 294kts
30-Sep-18 12:37 33.855618 -117.729639 279 4924ft 242kts
30-Sep-18 12:38 33.820576 -117.785528 228 3264ft 212kts
30-Sep-18 12:39 33.814106 -117.845967 296 3237ft 244kts
30-Sep-18 12:40 33.840383 -117.919317 291 2923ft 234kts
30-Sep-18 12:41 33.861467 -117.976036 319 3084ft 176kts
30-Sep-18 12:42 33.894864 -117.955673 91 3296ft 195kts
30-Sep-18 12:43 33.892003 -117.892355 93 3035ft 166kts
30-Sep-18 12:44 33.886540 -117.833038 95 3477ft 195kts
30-Sep-18 12:45 33.886979 -117.774775 90 3205ft 162kts
30-Sep-18 12:46 33.857588 -117.751452 208 3009ft 163kts
30-Sep-18 12:47 33.827304 -117.787258 247 3203ft 157kts
30-Sep-18 12:48 33.827062 -117.825109 359 3441ft 149kts
30-Sep-18 12:49 33.876409 -117.819663 6 4239ft 219kts
30-Sep-18 12:50 33.910471 -117.791037 99 4282ft 186kts
30-Sep-18 12:51 33.891851 -117.744230 160 3988ft 137kts
30-Sep-18 12:52 33.857740 -117.771615 225 3945ft 179kts
30-Sep-18 12:53 33.822743 -117.809057 181 4697ft 190kts
30-Sep-18 12:54 33.776819 -117.804678 195 4231ft 170kts
30-Sep-18 12:55 33.738527 -117.826465 207 2951ft 165kts
30-Sep-18 12:56 33.703735 -117.851212 203 1206ft 139kts
30-Sep-18 12:57 33.671973 -117.871232 208 63ft 73kts
30-Sep-18 12:58 33.670608 -117.873518 26 63ft 0kts
30-Sep-18 12:59 33.670608 -117.873518 26 63ft 0kts
30-Sep-18 13:00 33.670726 -117.873417 27 63ft 8kts

Navigation Log

Ident Type
Flight plan parsing failed, navigation log unavailable